Terminal Aerodrome Forecast
Issued by NWS Detroit/Pontiac, MI

Home | Current Version | Previous Version | Text Only | Print | Product List | Glossary On
Versions: 1 2 3 4 5 6 7 8 9 10 11 12 13 14 15 16 17
000
FTUS43 KDTX 030153 AAD
TAFFNT
TAF AMD
KFNT 030153Z 0302/0324 02020G35KT 1SM +TSRA BKN020CB OVC050
     FM030215 05012KT P6SM -SHRA SCT020 BKN035
     FM030500 27009KT P6SM SCT035 BKN100
     FM031300 29012KT P6SM SCT050=

USA.gov is the U.S. government's official web portal to all federal, state and local government web resources and services.